• Join FlightAware (Why Join?)
  • Login
  • US Flag 
03:57PM EST


 

Airport Tracker/Info


-or-


 

Live Flight TrackerFlight Track Log ✈ FIN666 ✈ 02-Jun-2014 ✈ EKCH / CPH - EFHK / HEL

Flight Track Log - Related Links

Times and Time Zones

All times are in EDT time to prevent confusion due to time zone crossing. See the FIN666 flight status page for this flight to view local times or setup timezone preferences in your user account.

Time Position Orientation Groundspeed Altitude Reporting Facility
EDT Latitude Longitude Course Direction KTS MPH feet Rate Location/Type
07:32AM 55.9905 13.4309 49° Northeast  Level Estimated
07:33AM 56.0644 13.5877 50° Northeast  Level Estimated
07:34AM 56.1426 13.7546 50° Northeast  Level Estimated
07:35AM 56.2206 13.9222 50° Northeast  Level Estimated
07:36AM 56.2983 14.0906 50° Northeast  Level Estimated
07:37AM 56.3758 14.2595 50° Northeast  Level Estimated
07:38AM 56.4531 14.4292 50° Northeast  Level Estimated
07:39AM 56.5301 14.5996 51° Northeast  Level Estimated
07:40AM 56.6069 14.7706 51° Northeast  Level Estimated
07:41AM 56.6835 14.9424 51° Northeast  Level Estimated
07:42AM 56.7598 15.1148 51° Northeast  Level Estimated
07:43AM 56.8359 15.2880 51° Northeast  Level Estimated
07:44AM 56.9118 15.4618 51° Northeast  Level Estimated
07:45AM 56.9874 15.6364 51° Northeast  Level Estimated
07:46AM 57.0628 15.8117 52° Northeast  Level Estimated
07:47AM 57.1379 15.9877 52° Northeast  Level Estimated
07:48AM 57.2127 16.1644 52° Northeast  Level Estimated
07:49AM 57.2874 16.3418 52° Northeast  Level Estimated
07:50AM 57.3618 16.5199 52° Northeast  Level Estimated
07:51AM 57.4359 16.6988 52° Northeast  Level Estimated
07:52AM 57.5097 16.8783 53° Northeast  Level Estimated
07:53AM 57.5834 17.0587 53° Northeast  Level Estimated
07:54AM 57.6567 17.2397 53° Northeast  Level Estimated
07:55AM 57.7298 17.4215 53° Northeast  Level Estimated
07:56AM 57.8026 17.6040 53° Northeast  Level Estimated
07:57AM 57.8752 17.7872 53° Northeast  Level Estimated
07:58AM 57.9475 17.9712 53° Northeast  Level Estimated
07:59AM 58.0196 18.1559 54° Northeast  Level Estimated
08:00AM 58.0913 18.3414 54° Northeast  Level Estimated
08:01AM 58.1628 18.5276 54° Northeast  Level Estimated
08:02AM 58.2340 18.7146 54° Northeast  Level Estimated
08:03AM 58.3050 18.9023 54° Northeast  Level Estimated
08:04AM 58.3757 19.0908 54° Northeast  Level Estimated
08:05AM 58.4461 19.2800 55° Northeast  Level Estimated
08:06AM 58.5162 19.4700 55° Northeast  Level Estimated
08:07AM 58.5860 19.6607 55° Northeast  Level Estimated
08:08AM 58.6556 19.8522 55° Northeast  Level Estimated
08:09AM 58.7248 20.0445 55° Northeast  Level Estimated
08:10AM 58.7938 20.2375 55° Northeast  Level Estimated
08:11AM 58.8625 20.4313 56° Northeast  Level Estimated
08:12AM 58.9309 20.6259 56° Northeast  Level Estimated
08:13AM 58.9990 20.8212 56° Northeast  Level Estimated
08:14AM 59.0668 21.0173 56° Northeast  Level Estimated
08:15AM 59.1344 21.2142 56° Northeast  Level Estimated
08:16AM 59.2016 21.4119 56° Northeast  Level Estimated
08:17AM 59.2685 21.6103 57° Northeast  Level Estimated
08:18AM 59.3351 21.8095 57° Northeast  Level Estimated
08:19AM 59.4014 22.0095 57° Northeast  Level Estimated
08:20AM 59.4674 22.2103 57° Northeast  Level Estimated
08:21AM 59.5331 22.4119 57° Northeast  Level Estimated
08:22AM 59.5985 22.6142 57° Northeast  Level Estimated
08:23AM 59.6635 22.8173 58° Northeast  Level Estimated
08:24AM 59.7283 23.0213 58° Northeast  Level Estimated
08:25AM 59.7927 23.2260 58° Northeast  Level Estimated
08:26AM 59.8568 23.4315 58° Northeast  Level Estimated
08:27AM 59.9206 23.6378 58° Northeast  Level Estimated
08:28AM 59.9841 23.8449 58° Northeast  Level Estimated
08:29AM 60.0472 24.0528 59° Northeast  Level Estimated
08:30AM 60.1101 24.2614 59° Northeast  Level Estimated
08:31AM 60.1726 24.4709 59° Northeast  Level Estimated
08:32AM 60.2347 24.6812 59° Northeast  Level Estimated
08:33AM 60.2965 24.8922 59° Northeast  Level Estimated
08:34AM 60.3172 24.9633 60° Northeast  Level Estimated
08:35AM 60.3172 24.9633 North  Level Estimated
08:36AM 60.3172 24.9633 North  Level Estimated
08:37AM 60.3172 24.9633 North  Level Estimated
08:38AM 60.3172 24.9633 North  Level Estimated
08:39AM 60.3172 24.9633 North  Level Estimated
08:40AM 60.3172 24.9633 North  Level Estimated
08:41AM 60.3172 24.9633 North  Level Estimated
08:42AM 60.3172 24.9633 North  Level Estimated
08:43AM 60.3172 24.9633 North  Level Estimated
08:44AM 60.3172 24.9633 North  Level Estimated
08:45AM 60.3172 24.9633 North  Level Estimated
08:46AM 60.3172 24.9633 North  Level Estimated
08:47AM 60.3172 24.9633 North  Level Estimated
08:48AM 60.3172 24.9633 North  Level Estimated
08:49AM 60.3172 24.9633 North  Level Estimated
08:50AM 60.3172 24.9633 North  Level Estimated